Time;durP1;ratioP1;P1;durP2;ratioP2;P2;SDS_P1;SDS_P2;PMS_P1;PMS_P2;Temp;Humidity;BMP_temperature;BMP_pressure;BME280_temperature;BME280_humidity;BME280_pressure;Samples;Min_cycle;Max_cycle;Signal;HPM_P1;HPM_P2
2021/12/05 00:21:55;;;;;;;;;;;3.40;99.90;;;;;;5065838;28;19917;-70
2021/12/05 00:24:24;;;;;;;;;;;3.40;99.90;;;;;;5065726;28;20139;-70
2021/12/05 00:26:56;;;;;;;;;;;3.30;99.90;;;;;;5065490;28;20212;-70
2021/12/05 00:29:30;;;;;;;;;;;3.30;99.90;;;;;;5066113;28;19962;-70
2021/12/05 00:32:03;;;;;;;;;;;3.30;99.90;;;;;;5065334;28;20262;-73
2021/12/05 00:34:57;;;;;;;;;;;3.30;99.90;;;;;;5064739;28;19921;-70
2021/12/05 00:49:19;;;;;;;;;;;3.20;99.90;;;;;;5052469;28;19927;-71
2021/12/05 01:00:31;;;;;;;;;;;3.20;99.90;;;;;;5065387;28;19950;-71
2021/12/05 01:03:20;;;;;;;;;;;3.20;99.90;;;;;;5064867;28;19951;-71
2021/12/05 01:11:50;;;;;;;;;;;3.10;99.90;;;;;;5058853;28;20112;-70
2021/12/05 01:14:29;;;;;;;;;;;3.20;99.90;;;;;;5064612;28;20242;-71
2021/12/05 01:16:55;;;;;;;;;;;3.20;99.90;;;;;;5064894;28;19921;-71
2021/12/05 01:19:25;;;;;;;;;;;3.20;99.90;;;;;;5064975;28;20226;-71
2021/12/05 01:21:53;;;;;;;;;;;3.20;99.90;;;;;;5064430;28;20116;-71
2021/12/05 01:24:29;;;;;;;;;;;3.20;99.90;;;;;;5064724;28;19927;-71
2021/12/05 01:27:00;;;;;;;;;;;3.20;99.90;;;;;;5064520;28;20139;-71
2021/12/05 01:29:36;;;;;;;;;;;3.20;99.90;;;;;;5064632;28;19984;-70
2021/12/05 01:32:13;;;;;;;;;;;3.10;99.90;;;;;;5064091;28;19928;-71
2021/12/05 01:37:33;;;;;;;;;;;3.10;99.90;;;;;;5063747;28;19963;-71
2021/12/05 01:40:19;;;;;;;;;;;3.10;99.90;;;;;;5064710;28;19921;-70
2021/12/05 01:43:16;;;;;;;;;;;3.10;99.90;;;;;;5063981;28;19958;-71
2021/12/05 01:49:08;;;;;;;;;;;3.00;99.90;;;;;;5047366;28;19992;-71
2021/12/05 01:57:41;;;;;;;;;;;2.90;99.90;;;;;;5020798;28;19949;-71
2021/12/05 02:07:44;;;;;;;;;;;2.90;99.90;;;;;;5061837;28;20167;-71
2021/12/05 02:09:07;;;;;;;;;;;3.00;99.90;;;;;;5063774;28;19924;-71
2021/12/05 02:11:59;;;;;;;;;;;3.00;99.90;;;;;;5063708;28;19924;-70
2021/12/05 02:31:33;;;;;;;;;;;2.90;99.90;;;;;;5063205;28;19939;-71
2021/12/05 02:34:09;;;;;;;;;;;3.00;99.90;;;;;;5063448;28;19921;-71
2021/12/05 02:37:00;;;;;;;;;;;3.00;99.90;;;;;;5063441;28;19983;-71
2021/12/05 02:39:36;;;;;;;;;;;3.00;99.90;;;;;;5063538;28;20147;-71
2021/12/05 02:42:09;;;;;;;;;;;3.10;99.90;;;;;;5063249;28;19959;-70
2021/12/05 02:44:35;;;;;;;;;;;3.00;99.90;;;;;;5063363;28;19921;-71
2021/12/05 02:47:07;;;;;;;;;;;3.00;99.90;;;;;;5063265;28;19921;-71
2021/12/05 02:49:34;;;;;;;;;;;2.90;99.90;;;;;;5063306;28;19958;-71
2021/12/05 02:52:06;;;;;;;;;;;2.90;99.90;;;;;;5063240;28;19920;-71
2021/12/05 02:54:38;;;;;;;;;;;2.90;99.90;;;;;;5062832;28;19964;-71
2021/12/05 02:57:05;;;;;;;;;;;2.90;99.90;;;;;;5062909;28;19920;-71
2021/12/05 02:59:42;;;;;;;;;;;3.00;99.90;;;;;;5063351;28;19920;-70
2021/12/05 03:02:12;;;;;;;;;;;3.00;99.90;;;;;;5063049;28;19921;-71
2021/12/05 03:04:41;;;;;;;;;;;3.00;99.90;;;;;;5062932;28;19924;-70
2021/12/05 03:07:10;;;;;;;;;;;3.00;99.90;;;;;;5063058;28;19921;-71
2021/12/05 03:09:38;;;;;;;;;;;3.00;99.90;;;;;;5063231;28;19966;-70
2021/12/05 03:12:05;;;;;;;;;;;3.00;99.90;;;;;;5062978;28;19924;-71
2021/12/05 03:14:32;;;;;;;;;;;3.00;99.90;;;;;;5062514;28;19928;-70
2021/12/05 03:16:58;;;;;;;;;;;3.00;99.90;;;;;;5062724;28;20227;-71
2021/12/05 03:19:25;;;;;;;;;;;2.90;99.90;;;;;;5063092;28;19927;-71
2021/12/05 03:21:52;;;;;;;;;;;2.90;99.90;;;;;;5062456;28;19921;-70
2021/12/05 03:24:21;;;;;;;;;;;2.90;99.90;;;;;;5062541;28;19921;-71
2021/12/05 03:26:49;;;;;;;;;;;2.90;99.90;;;;;;5062499;28;19921;-70
2021/12/05 03:29:17;;;;;;;;;;;2.90;99.90;;;;;;5063240;28;19920;-71
2021/12/05 03:31:43;;;;;;;;;;;2.80;99.90;;;;;;5062346;28;19921;-71
2021/12/05 03:34:11;;;;;;;;;;;2.80;99.90;;;;;;5062738;28;19927;-70
2021/12/05 03:36:39;;;;;;;;;;;2.80;99.90;;;;;;5062784;28;19920;-69
2021/12/05 03:39:07;;;;;;;;;;;2.80;99.90;;;;;;5063200;28;19920;-71
2021/12/05 03:41:35;;;;;;;;;;;2.80;99.90;;;;;;5062483;28;20204;-71
2021/12/05 03:44:05;;;;;;;;;;;2.80;99.90;;;;;;5042750;28;19921;-71
2021/12/05 03:46:32;;;;;;;;;;;2.80;99.90;;;;;;5049014;28;19925;-71
2021/12/05 03:49:01;;;;;;;;;;;2.90;99.90;;;;;;5062796;28;19927;-71
2021/12/05 03:51:32;;;;;;;;;;;2.80;99.90;;;;;;5062595;28;19921;-72
2021/12/05 03:53:58;;;;;;;;;;;2.90;99.90;;;;;;5062369;28;19927;-71
2021/12/05 03:56:25;;;;;;;;;;;2.90;99.90;;;;;;5062661;28;19921;-70
2021/12/05 03:58:53;;;;;;;;;;;2.90;99.90;;;;;;5062515;28;20330;-71
2021/12/05 04:01:20;;;;;;;;;;;2.90;99.90;;;;;;5062237;28;19985;-71
2021/12/05 04:06:19;;;;;;;;;;;3.00;99.90;;;;;;5060630;28;19928;-73
2021/12/05 04:08:45;;;;;;;;;;;3.00;99.90;;;;;;5062513;28;19921;-74
2021/12/05 04:11:14;;;;;;;;;;;3.00;99.90;;;;;;5065553;28;19920;-74
2021/12/05 04:13:41;;;;;;;;;;;3.00;99.90;;;;;;5065843;28;19924;-74
2021/12/05 04:16:09;;;;;;;;;;;3.00;99.90;;;;;;5045627;28;19928;-74
2021/12/05 04:18:36;;;;;;;;;;;3.10;99.90;;;;;;5046321;28;19971;-73
2021/12/05 04:21:04;;;;;;;;;;;3.00;99.90;;;;;;5045879;28;20367;-74
2021/12/05 04:23:31;;;;;;;;;;;3.00;99.90;;;;;;5045668;28;20208;-74
2021/12/05 04:25:58;;;;;;;;;;;3.00;99.90;;;;;;5045685;28;19940;-73
2021/12/05 04:28:25;;;;;;;;;;;3.00;99.90;;;;;;5046049;28;19927;-74
2021/12/05 04:30:51;;;;;;;;;;;3.00;99.90;;;;;;5045737;28;19921;-75
2021/12/05 04:33:19;;;;;;;;;;;3.00;99.90;;;;;;5045627;28;19925;-74
2021/12/05 04:35:47;;;;;;;;;;;2.90;99.90;;;;;;5045525;28;19921;-73
2021/12/05 04:38:14;;;;;;;;;;;3.10;99.90;;;;;;5045940;28;19927;-75
2021/12/05 04:40:41;;;;;;;;;;;3.00;99.90;;;;;;5045835;28;19925;-74
2021/12/05 04:43:08;;;;;;;;;;;3.00;99.90;;;;;;5045465;28;19922;-73
2021/12/05 04:45:36;;;;;;;;;;;2.90;99.90;;;;;;5045469;28;19984;-74
2021/12/05 04:48:04;;;;;;;;;;;2.90;99.90;;;;;;5045178;28;19921;-74
2021/12/05 04:50:33;;;;;;;;;;;2.90;99.90;;;;;;5043264;28;19928;-74
2021/12/05 04:52:59;;;;;;;;;;;2.90;99.90;;;;;;5043377;28;19988;-74
2021/12/05 04:55:26;;;;;;;;;;;2.90;99.90;;;;;;5045280;28;19925;-74
2021/12/05 04:57:53;;;;;;;;;;;2.90;99.90;;;;;;5044780;28;19922;-74
2021/12/05 05:00:22;;;;;;;;;;;2.90;99.90;;;;;;5045401;28;20116;-74
2021/12/05 05:02:49;;;;;;;;;;;2.90;99.90;;;;;;5044919;28;19921;-74
2021/12/05 05:05:16;;;;;;;;;;;2.90;99.90;;;;;;5044851;28;19921;-74
2021/12/05 05:07:44;;;;;;;;;;;2.90;99.90;;;;;;5045094;28;19927;-72
2021/12/05 05:10:12;;;;;;;;;;;2.90;99.90;;;;;;5044981;28;19921;-74
2021/12/05 05:12:39;;;;;;;;;;;2.90;99.90;;;;;;5044734;28;19936;-72
2021/12/05 05:15:06;;;;;;;;;;;2.90;99.90;;;;;;5044833;28;19943;-75
2021/12/05 05:17:33;;;;;;;;;;;3.00;99.90;;;;;;5044910;28;19921;-73
2021/12/05 05:20:05;;;;;;;;;;;2.90;99.90;;;;;;5044534;28;20227;-72
2021/12/05 05:22:41;;;;;;;;;;;3.00;99.90;;;;;;5041113;28;19989;-74
2021/12/05 05:28:24;;;;;;;;;;;3.00;99.90;;;;;;5020038;28;20223;-74
2021/12/05 05:44:56;;;;;;;;;;;2.70;99.90;;;;;;5006247;28;19941;-74
2021/12/05 05:47:30;;;;;;;;;;;2.80;99.90;;;;;;5044334;28;20173;-74
2021/12/05 05:49:58;;;;;;;;;;;2.70;99.90;;;;;;5044409;28;19968;-74
2021/12/05 05:52:26;;;;;;;;;;;2.70;99.90;;;;;;5044086;28;19980;-75
2021/12/05 05:54:55;;;;;;;;;;;2.70;99.90;;;;;;5043984;28;19921;-74
2021/12/05 05:57:26;;;;;;;;;;;2.60;99.90;;;;;;5043872;28;19925;-73
2021/12/05 05:59:59;;;;;;;;;;;2.70;99.90;;;;;;5044085;28;19925;-73
2021/12/05 06:05:10;;;;;;;;;;;2.60;99.90;;;;;;5043709;28;19960;-72
2021/12/05 06:07:42;;;;;;;;;;;2.60;99.90;;;;;;5043692;28;19928;-75
2021/12/05 06:10:10;;;;;;;;;;;2.50;99.90;;;;;;5044031;28;19928;-72
2021/12/05 06:12:39;;;;;;;;;;;2.50;99.90;;;;;;5043339;28;19921;-73
2021/12/05 06:15:07;;;;;;;;;;;2.50;99.90;;;;;;5043610;28;19921;-73
2021/12/05 06:17:34;;;;;;;;;;;2.50;99.90;;;;;;5043533;28;20208;-73
2021/12/05 06:20:00;;;;;;;;;;;2.50;99.90;;;;;;5043806;28;20362;-73
2021/12/05 06:22:27;;;;;;;;;;;2.50;99.90;;;;;;5043618;28;19921;-73
2021/12/05 06:24:53;;;;;;;;;;;2.50;99.90;;;;;;5043679;28;19921;-73
2021/12/05 06:27:20;;;;;;;;;;;2.50;99.90;;;;;;5043708;28;19928;-73
2021/12/05 06:29:53;;;;;;;;;;;2.50;99.90;;;;;;5043601;28;20220;-71
2021/12/05 06:37:49;;;;;;;;;;;2.40;99.90;;;;;;5043382;28;20112;-71
2021/12/05 06:40:24;;;;;;;;;;;2.40;99.90;;;;;;5043718;28;19927;-73
2021/12/05 06:42:57;;;;;;;;;;;2.40;99.90;;;;;;5042967;28;19921;-73
2021/12/05 06:48:10;;;;;;;;;;;2.20;99.90;;;;;;5043209;28;19928;-73
2021/12/05 06:50:36;;;;;;;;;;;2.20;99.90;;;;;;5043670;28;20116;-73
2021/12/05 06:53:06;;;;;;;;;;;2.30;99.90;;;;;;5043336;28;19921;-73
2021/12/05 06:55:33;;;;;;;;;;;2.20;99.90;;;;;;5043106;28;19928;-73
2021/12/05 06:57:59;;;;;;;;;;;2.20;99.90;;;;;;5043110;28;19984;-73
2021/12/05 07:00:29;;;;;;;;;;;2.20;99.90;;;;;;5043426;28;20208;-73
2021/12/05 07:02:55;;;;;;;;;;;2.10;99.90;;;;;;5042946;28;19984;-73
2021/12/05 07:08:18;;;;;;;;;;;2.10;99.90;;;;;;4982607;28;19980;-73
2021/12/05 07:10:52;;;;;;;;;;;2.10;99.90;;;;;;5028563;28;20144;-72
2021/12/05 07:16:10;;;;;;;;;;;2.10;99.90;;;;;;5025456;28;19988;-73
2021/12/05 07:18:48;;;;;;;;;;;2.10;99.90;;;;;;5043468;28;20090;-73
2021/12/05 07:21:27;;;;;;;;;;;2.20;99.90;;;;;;5042937;28;19921;-72
2021/12/05 07:24:03;;;;;;;;;;;2.10;99.90;;;;;;5043176;28;19995;-75
2021/12/05 07:26:44;;;;;;;;;;;2.10;99.90;;;;;;5042553;28;20232;-73
2021/12/05 07:40:28;;;;;;;;;;;2.10;99.90;;;;;;5043075;28;19924;-75
2021/12/05 07:42:56;;;;;;;;;;;2.10;99.90;;;;;;5040918;28;20212;-74
2021/12/05 07:45:28;;;;;;;;;;;2.10;99.90;;;;;;5044837;28;19984;-75
2021/12/05 07:47:58;;;;;;;;;;;2.20;99.90;;;;;;5045400;28;20119;-74
2021/12/05 07:50:37;;;;;;;;;;;2.20;99.90;;;;;;5046877;28;19984;-74
2021/12/05 07:53:10;;;;;;;;;;;2.20;99.90;;;;;;5046329;28;19921;-75
2021/12/05 07:55:41;;;;;;;;;;;2.20;99.90;;;;;;5046300;28;19963;-76
2021/12/05 07:58:21;;;;;;;;;;;2.20;99.90;;;;;;5046520;28;19921;-76
2021/12/05 08:00:57;;;;;;;;;;;2.30;99.90;;;;;;5045925;28;19921;-76
2021/12/05 08:14:40;;;;;;;;;;;2.30;99.90;;;;;;5006664;28;19988;-75
2021/12/05 08:17:14;;;;;;;;;;;2.30;99.90;;;;;;5041198;28;19944;-75
2021/12/05 08:19:41;;;;;;;;;;;2.40;99.90;;;;;;5046385;28;19927;-75
2021/12/05 08:22:08;;;;;;;;;;;2.30;99.90;;;;;;5045632;28;19921;-75
2021/12/05 08:24:37;;;;;;;;;;;2.30;99.90;;;;;;5046204;28;19921;-75
2021/12/05 08:27:05;;;;;;;;;;;2.20;99.90;;;;;;5046003;28;19984;-75
2021/12/05 08:29:39;;;;;;;;;;;2.20;99.90;;;;;;5046335;28;19921;-74
2021/12/05 08:32:17;;;;;;;;;;;2.20;99.90;;;;;;5045144;28;19959;-75
2021/12/05 08:34:58;;;;;;;;;;;2.20;99.90;;;;;;5045780;28;19921;-75
2021/12/05 09:24:34;;;;;;;;;;;2.30;99.90;;;;;;5044535;28;20299;-73
2021/12/05 10:03:07;;;;;;;;;;;2.60;99.90;;;;;;5041907;28;19924;-74
2021/12/05 10:08:40;;;;;;;;;;;2.60;99.90;;;;;;5043768;28;19984;-73
2021/12/05 10:16:40;;;;;;;;;;;2.90;99.90;;;;;;5033776;28;19921;-73
2021/12/05 10:19:38;;;;;;;;;;;3.00;99.90;;;;;;5023936;28;19964;-72
2021/12/05 10:36:06;;;;;;;;;;;3.70;99.90;;;;;;5043368;28;19989;-73
2021/12/05 10:38:39;;;;;;;;;;;3.70;99.90;;;;;;5043738;28;19956;-73
2021/12/05 10:41:20;;;;;;;;;;;3.80;99.90;;;;;;5043506;28;19971;-72
2021/12/05 10:43:49;;;;;;;;;;;3.90;99.90;;;;;;5042785;28;19928;-73
2021/12/05 10:46:19;;;;;;;;;;;4.00;99.90;;;;;;5046270;28;19943;-73
2021/12/05 10:48:47;;;;;;;;;;;4.10;99.90;;;;;;5043275;28;19921;-73
2021/12/05 10:51:15;;;;;;;;;;;4.20;99.90;;;;;;5043406;28;19943;-73
2021/12/05 10:53:43;;;;;;;;;;;4.30;99.90;;;;;;5043136;28;19921;-71
2021/12/05 10:56:12;;;;;;;;;;;4.50;99.90;;;;;;5042888;28;19975;-73
2021/12/05 10:58:41;;;;;;;;;;;4.50;99.90;;;;;;5043586;28;19921;-70
2021/12/05 11:01:09;;;;;;;;;;;4.70;99.90;;;;;;5041643;28;19932;-69
2021/12/05 11:03:37;;;;;;;;;;;4.80;99.90;;;;;;5041607;28;19927;-70
2021/12/05 11:06:17;;;;;;;;;;;4.90;99.90;;;;;;5041987;28;19921;-71
2021/12/05 11:08:43;;;;;;;;;;;5.00;99.90;;;;;;5043193;28;19925;-70
2021/12/05 11:11:11;;;;;;;;;;;5.20;99.90;;;;;;5043018;28;19929;-71
2021/12/05 11:13:38;;;;;;;;;;;5.20;99.90;;;;;;5042693;28;19921;-71
2021/12/05 11:16:06;;;;;;;;;;;5.30;99.90;;;;;;5042873;28;19933;-68
2021/12/05 11:18:44;;;;;;;;;;;5.30;99.90;;;;;;5044052;28;19951;-70
2021/12/05 11:21:30;;;;;;;;;;;5.20;99.90;;;;;;5046687;28;19928;-71
2021/12/05 11:24:07;;;;;;;;;;;5.10;99.90;;;;;;5046709;28;20165;-71
2021/12/05 11:26:33;;;;;;;;;;;5.00;99.90;;;;;;5046594;28;19949;-71
2021/12/05 11:29:00;;;;;;;;;;;4.90;99.90;;;;;;5046197;28;19921;-71
2021/12/05 11:31:28;;;;;;;;;;;4.80;99.90;;;;;;5047193;28;19925;-70
2021/12/05 11:33:57;;;;;;;;;;;4.80;99.90;;;;;;5046562;28;20208;-71
2021/12/05 11:36:24;;;;;;;;;;;4.70;99.90;;;;;;5047173;28;19921;-69
2021/12/05 11:38:51;;;;;;;;;;;4.70;99.90;;;;;;5046989;28;19928;-73
2021/12/05 11:41:20;;;;;;;;;;;4.70;99.90;;;;;;5047128;28;19921;-69
2021/12/05 11:43:47;;;;;;;;;;;4.70;99.90;;;;;;5046691;28;19921;-73
2021/12/05 11:46:15;;;;;;;;;;;4.80;99.90;;;;;;5046628;28;19921;-72
2021/12/05 11:48:43;;;;;;;;;;;4.80;99.90;;;;;;5046791;28;19921;-69
2021/12/05 11:51:23;;;;;;;;;;;4.70;99.90;;;;;;5046329;28;20205;-73
2021/12/05 11:53:52;;;;;;;;;;;4.60;99.90;;;;;;5046404;28;19921;-70
2021/12/05 11:56:20;;;;;;;;;;;4.60;99.90;;;;;;5046248;28;19921;-70
2021/12/05 11:59:02;;;;;;;;;;;4.60;99.90;;;;;;5046713;28;19921;-70
2021/12/05 12:01:34;;;;;;;;;;;4.60;99.90;;;;;;5046535;28;19921;-73
2021/12/05 12:04:02;;;;;;;;;;;4.60;99.90;;;;;;5045781;28;19923;-72
2021/12/05 12:06:30;;;;;;;;;;;4.60;99.90;;;;;;5026509;28;19928;-72
2021/12/05 12:08:56;;;;;;;;;;;4.70;99.90;;;;;;5026652;28;19960;-72
2021/12/05 12:11:23;;;;;;;;;;;4.60;99.90;;;;;;5026993;28;19928;-72
2021/12/05 12:13:51;;;;;;;;;;;4.70;99.90;;;;;;5026372;28;19927;-73
2021/12/05 12:16:18;;;;;;;;;;;4.60;99.90;;;;;;5026494;28;19933;-73
2021/12/05 12:18:48;;;;;;;;;;;4.60;99.90;;;;;;5026594;28;19948;-70
2021/12/05 12:21:18;;;;;;;;;;;4.60;99.90;;;;;;5026499;28;19922;-71
2021/12/05 12:23:47;;;;;;;;;;;4.60;99.90;;;;;;5026069;28;19957;-70
2021/12/05 12:26:14;;;;;;;;;;;4.70;99.90;;;;;;5045873;28;19927;-70
2021/12/05 12:28:40;;;;;;;;;;;4.70;99.90;;;;;;5046044;28;19929;-71
2021/12/05 12:31:08;;;;;;;;;;;4.70;99.90;;;;;;5045210;28;19921;-72
2021/12/05 12:33:37;;;;;;;;;;;4.70;99.90;;;;;;5045608;28;20235;-73
2021/12/05 12:36:04;;;;;;;;;;;4.70;99.90;;;;;;5045777;28;19943;-73
2021/12/05 12:38:35;;;;;;;;;;;4.70;99.90;;;;;;5045873;28;19921;-73
2021/12/05 12:41:05;;;;;;;;;;;4.80;99.90;;;;;;5045840;28;19921;-71
2021/12/05 12:43:40;;;;;;;;;;;4.80;99.90;;;;;;5045679;28;19928;-71
2021/12/05 12:46:20;;;;;;;;;;;4.90;99.90;;;;;;5045665;28;19927;-73
2021/12/05 12:48:47;;;;;;;;;;;4.90;99.90;;;;;;5045774;28;19943;-70
2021/12/05 12:51:25;;;;;;;;;;;5.10;99.90;;;;;;5045691;28;19921;-70
2021/12/05 12:53:54;;;;;;;;;;;5.30;99.90;;;;;;5045234;28;19921;-69
2021/12/05 12:56:23;;;;;;;;;;;5.50;99.90;;;;;;5045458;28;19928;-71
2021/12/05 12:58:51;;;;;;;;;;;5.70;99.90;;;;;;5045574;28;19924;-70
2021/12/05 13:01:34;;;;;;;;;;;6.00;99.90;;;;;;5045167;28;19921;-71
2021/12/05 13:04:29;;;;;;;;;;;6.30;99.90;;;;;;5045113;28;19967;-71
2021/12/05 13:12:45;;;;;;;;;;;6.90;99.90;;;;;;5060052;28;19984;-71
2021/12/05 13:15:14;;;;;;;;;;;6.90;99.90;;;;;;5063714;28;19921;-71
2021/12/05 13:17:42;;;;;;;;;;;6.70;99.90;;;;;;5064481;28;19921;-70
2021/12/05 13:20:09;;;;;;;;;;;6.70;99.90;;;;;;5051132;28;20255;-69
2021/12/05 13:22:51;;;;;;;;;;;6.70;99.90;;;;;;5054829;28;19956;-70
2021/12/05 13:25:18;;;;;;;;;;;6.60;99.90;;;;;;5048887;28;19921;-70
2021/12/05 13:27:45;;;;;;;;;;;6.40;99.90;;;;;;5052895;28;19921;-71
2021/12/05 13:30:27;;;;;;;;;;;6.30;99.90;;;;;;5046988;28;19925;-69
2021/12/05 13:33:14;;;;;;;;;;;6.20;99.90;;;;;;5044752;28;19921;-69
2021/12/05 13:35:42;;;;;;;;;;;6.10;99.90;;;;;;5043795;28;19925;-69
2021/12/05 13:38:29;;;;;;;;;;;6.00;99.90;;;;;;5044844;28;19928;-70
2021/12/05 13:40:56;;;;;;;;;;;5.90;99.90;;;;;;5044688;28;19921;-69
2021/12/05 13:43:28;;;;;;;;;;;5.90;99.90;;;;;;5044752;28;19921;-69
2021/12/05 13:45:57;;;;;;;;;;;5.70;99.90;;;;;;5044409;28;19960;-69
2021/12/05 13:48:26;;;;;;;;;;;5.70;99.90;;;;;;5044443;28;19921;-69
2021/12/05 13:50:56;;;;;;;;;;;5.60;99.90;;;;;;5036500;28;19921;-69
2021/12/05 13:53:37;;;;;;;;;;;5.60;99.90;;;;;;5044315;28;19928;-70
2021/12/05 13:56:13;;;;;;;;;;;5.60;99.90;;;;;;5024023;28;20227;-70
2021/12/05 13:58:43;;;;;;;;;;;5.50;99.90;;;;;;5024698;28;19921;-70
2021/12/05 14:01:12;;;;;;;;;;;5.40;99.90;;;;;;5024329;28;20205;-70
2021/12/05 14:03:40;;;;;;;;;;;5.40;99.90;;;;;;5024392;28;19925;-70
2021/12/05 14:06:21;;;;;;;;;;;5.40;99.90;;;;;;5024062;28;19922;-70
2021/12/05 14:08:48;;;;;;;;;;;5.30;99.90;;;;;;5035362;28;19927;-70
2021/12/05 14:11:14;;;;;;;;;;;5.30;99.90;;;;;;5044068;28;19942;-70
2021/12/05 14:13:42;;;;;;;;;;;5.20;99.90;;;;;;5043685;28;19927;-71
2021/12/05 14:16:09;;;;;;;;;;;5.20;99.90;;;;;;5044007;28;19927;-70
2021/12/05 14:18:36;;;;;;;;;;;5.20;99.90;;;;;;5043419;28;19931;-70
2021/12/05 14:21:10;;;;;;;;;;;5.10;99.90;;;;;;5047005;28;20116;-70
2021/12/05 14:23:37;;;;;;;;;;;5.10;99.90;;;;;;5043796;28;19928;-70
2021/12/05 14:26:12;;;;;;;;;;;5.00;99.90;;;;;;5043501;28;19920;-70
2021/12/05 14:28:39;;;;;;;;;;;5.00;99.90;;;;;;5043514;28;19927;-70
2021/12/05 14:31:07;;;;;;;;;;;5.00;99.90;;;;;;5043755;28;19927;-70
2021/12/05 14:33:46;;;;;;;;;;;5.00;99.90;;;;;;5043455;28;19927;-70
2021/12/05 14:36:19;;;;;;;;;;;4.90;99.90;;;;;;5046086;28;19928;-71
2021/12/05 14:38:46;;;;;;;;;;;4.90;99.90;;;;;;5043388;28;19951;-70
2021/12/05 14:41:12;;;;;;;;;;;4.90;99.90;;;;;;5043386;28;19935;-69
2021/12/05 14:43:39;;;;;;;;;;;4.90;99.90;;;;;;5041870;28;19927;-70
2021/12/05 14:46:07;;;;;;;;;;;4.90;99.90;;;;;;5043145;28;19987;-69
2021/12/05 14:48:34;;;;;;;;;;;4.80;99.90;;;;;;5023697;28;19921;-69
2021/12/05 14:51:02;;;;;;;;;;;4.80;99.90;;;;;;5028114;28;19921;-70
2021/12/05 14:53:29;;;;;;;;;;;4.80;99.90;;;;;;5042626;28;20209;-70
2021/12/05 14:55:58;;;;;;;;;;;4.80;99.90;;;;;;5042951;28;19935;-70
2021/12/05 14:58:25;;;;;;;;;;;4.80;99.90;;;;;;5043129;28;19921;-70
2021/12/05 15:00:54;;;;;;;;;;;4.70;99.90;;;;;;5043488;28;20000;-71
2021/12/05 15:03:23;;;;;;;;;;;4.60;99.90;;;;;;5043732;28;19993;-69
2021/12/05 15:05:51;;;;;;;;;;;4.60;99.90;;;;;;5047042;28;19936;-71
2021/12/05 15:08:20;;;;;;;;;;;4.50;99.90;;;;;;5043177;28;19935;-70
2021/12/05 15:10:47;;;;;;;;;;;4.50;99.90;;;;;;5042650;28;19960;-71
2021/12/05 15:13:17;;;;;;;;;;;4.50;99.90;;;;;;5042659;28;20090;-71
2021/12/05 15:15:44;;;;;;;;;;;4.40;99.90;;;;;;5042604;28;19993;-69
2021/12/05 15:18:14;;;;;;;;;;;4.40;99.90;;;;;;5043287;28;20226;-70
2021/12/05 15:20:42;;;;;;;;;;;4.40;99.90;;;;;;5043212;28;19921;-70
2021/12/05 15:23:10;;;;;;;;;;;4.30;99.90;;;;;;5042968;28;19927;-70
2021/12/05 15:25:38;;;;;;;;;;;4.30;99.90;;;;;;5044103;28;19935;-70
2021/12/05 15:28:06;;;;;;;;;;;4.20;99.90;;;;;;5042961;28;20208;-70
2021/12/05 15:30:34;;;;;;;;;;;4.20;99.90;;;;;;5042903;28;19921;-70
2021/12/05 15:33:03;;;;;;;;;;;4.20;99.90;;;;;;5043227;28;19928;-70
2021/12/05 15:35:31;;;;;;;;;;;4.20;99.90;;;;;;5042724;28;19988;-70
2021/12/05 15:38:01;;;;;;;;;;;4.20;99.90;;;;;;5043174;28;20167;-73
2021/12/05 15:40:29;;;;;;;;;;;4.30;99.90;;;;;;5042408;28;20212;-70
2021/12/05 15:42:58;;;;;;;;;;;4.20;99.90;;;;;;5034381;28;19921;-70
2021/12/05 15:45:25;;;;;;;;;;;4.20;99.90;;;;;;5042408;28;19921;-70
2021/12/05 15:47:51;;;;;;;;;;;4.20;99.90;;;;;;5043153;28;19921;-70
2021/12/05 15:50:19;;;;;;;;;;;4.20;99.90;;;;;;5042676;28;20208;-69
2021/12/05 15:52:48;;;;;;;;;;;4.10;99.90;;;;;;5042387;28;20068;-70
2021/12/05 15:55:19;;;;;;;;;;;4.10;99.90;;;;;;5042587;28;19921;-70
2021/12/05 15:57:47;;;;;;;;;;;4.10;99.90;;;;;;5042954;28;20267;-70
2021/12/05 16:00:17;;;;;;;;;;;4.10;99.90;;;;;;5042987;28;19927;-72
2021/12/05 16:02:47;;;;;;;;;;;4.00;99.90;;;;;;5041710;28;19928;-70
2021/12/05 16:05:21;;;;;;;;;;;4.00;99.90;;;;;;5042729;28;19981;-72
2021/12/05 16:07:48;;;;;;;;;;;4.10;99.90;;;;;;5046378;28;19921;-70
2021/12/05 16:10:18;;;;;;;;;;;4.10;99.90;;;;;;5045261;28;20113;-71
2021/12/05 16:12:46;;;;;;;;;;;4.10;99.90;;;;;;5045729;28;19929;-74
2021/12/05 16:15:14;;;;;;;;;;;4.00;99.90;;;;;;5045189;28;19921;-73
2021/12/05 16:17:41;;;;;;;;;;;4.00;99.90;;;;;;5045270;28;19927;-75
2021/12/05 16:20:13;;;;;;;;;;;4.00;99.90;;;;;;5046516;28;20164;-74
2021/12/05 16:22:57;;;;;;;;;;;4.00;99.90;;;;;;5030774;28;19921;-73
2021/12/05 16:25:25;;;;;;;;;;;3.90;99.90;;;;;;5045287;28;19925;-73
2021/12/05 16:27:52;;;;;;;;;;;4.00;99.90;;;;;;5045799;28;19928;-71
2021/12/05 16:30:22;;;;;;;;;;;4.00;99.90;;;;;;5044584;28;19921;-73
2021/12/05 16:32:49;;;;;;;;;;;4.00;99.90;;;;;;5045320;28;19921;-73
2021/12/05 16:35:24;;;;;;;;;;;3.90;99.90;;;;;;5045065;28;20231;-72
2021/12/05 16:37:51;;;;;;;;;;;4.00;99.90;;;;;;5046762;28;20112;-72
2021/12/05 16:40:17;;;;;;;;;;;4.00;99.90;;;;;;5046582;28;19953;-72
2021/12/05 16:42:45;;;;;;;;;;;4.00;99.90;;;;;;5047068;28;19928;-72
2021/12/05 16:45:12;;;;;;;;;;;4.00;99.90;;;;;;5047056;28;19928;-72
2021/12/05 16:47:39;;;;;;;;;;;4.00;99.90;;;;;;5046427;28;20116;-72
2021/12/05 16:50:07;;;;;;;;;;;3.90;99.90;;;;;;5047514;28;19928;-72
2021/12/05 16:52:37;;;;;;;;;;;3.90;99.90;;;;;;5047245;28;20116;-72
2021/12/05 16:55:11;;;;;;;;;;;3.90;99.90;;;;;;5047589;28;19998;-72
2021/12/05 16:57:43;;;;;;;;;;;3.80;99.90;;;;;;5046725;28;19933;-71
2021/12/05 17:00:13;;;;;;;;;;;3.80;99.90;;;;;;5046304;28;19928;-71
2021/12/05 17:02:44;;;;;;;;;;;3.80;99.90;;;;;;5044312;28;19929;-71
2021/12/05 17:05:16;;;;;;;;;;;3.80;99.90;;;;;;5044766;28;19928;-74
2021/12/05 17:07:44;;;;;;;;;;;3.80;99.90;;;;;;5045795;28;19989;-74
2021/12/05 17:10:13;;;;;;;;;;;3.80;99.90;;;;;;5032848;28;19921;-74
2021/12/05 17:12:39;;;;;;;;;;;3.80;99.90;;;;;;5045885;28;19927;-74
2021/12/05 17:15:18;;;;;;;;;;;3.70;99.90;;;;;;5043094;28;20234;-74
2021/12/05 17:17:45;;;;;;;;;;;3.70;99.90;;;;;;5044674;28;19921;-73
2021/12/05 17:20:19;;;;;;;;;;;3.70;99.90;;;;;;5045512;28;19921;-73
2021/12/05 17:22:51;;;;;;;;;;;3.60;99.90;;;;;;5045138;28;19921;-74
2021/12/05 17:25:25;;;;;;;;;;;3.60;99.90;;;;;;5043927;28;19921;-74
2021/12/05 17:27:52;;;;;;;;;;;3.60;99.90;;;;;;5045208;28;19928;-74
2021/12/05 17:30:20;;;;;;;;;;;3.60;99.90;;;;;;5045254;28;19959;-74
2021/12/05 17:32:47;;;;;;;;;;;3.60;99.90;;;;;;5045304;28;19927;-74
2021/12/05 17:35:14;;;;;;;;;;;3.60;99.90;;;;;;5044670;28;19921;-73
2021/12/05 17:37:43;;;;;;;;;;;3.60;99.90;;;;;;5045572;28;20109;-73
2021/12/05 17:40:10;;;;;;;;;;;3.60;99.90;;;;;;5045311;28;19928;-73
2021/12/05 17:42:39;;;;;;;;;;;3.60;99.90;;;;;;5045058;28;19928;-73
2021/12/05 17:45:07;;;;;;;;;;;3.60;99.90;;;;;;5044584;28;19940;-73
2021/12/05 17:47:35;;;;;;;;;;;3.60;99.90;;;;;;5044695;28;19925;-74
2021/12/05 17:50:04;;;;;;;;;;;3.70;99.90;;;;;;5025343;28;19934;-73
2021/12/05 17:52:32;;;;;;;;;;;3.70;99.90;;;;;;5025645;28;20120;-74
2021/12/05 17:55:04;;;;;;;;;;;3.70;99.90;;;;;;5043343;28;19960;-72
2021/12/05 17:57:38;;;;;;;;;;;3.70;99.90;;;;;;5044676;28;19921;-73
2021/12/05 18:00:14;;;;;;;;;;;3.70;99.90;;;;;;5044795;28;20000;-73
2021/12/05 18:02:47;;;;;;;;;;;3.70;99.90;;;;;;5024890;28;20213;-72
2021/12/05 18:05:15;;;;;;;;;;;3.70;99.90;;;;;;5043726;28;19964;-72
2021/12/05 18:07:42;;;;;;;;;;;3.70;99.90;;;;;;5031393;28;19921;-73
2021/12/05 18:10:10;;;;;;;;;;;3.70;99.90;;;;;;5037553;28;19936;-72
2021/12/05 18:12:37;;;;;;;;;;;3.70;99.90;;;;;;5044623;28;19928;-72
2021/12/05 18:15:05;;;;;;;;;;;3.70;99.90;;;;;;5044154;28;19921;-73
2021/12/05 18:17:32;;;;;;;;;;;3.70;99.90;;;;;;5024707;28;20120;-73
2021/12/05 18:20:00;;;;;;;;;;;3.70;99.90;;;;;;5024451;28;19921;-73
2021/12/05 18:22:27;;;;;;;;;;;3.70;99.90;;;;;;5034914;28;19928;-73
2021/12/05 18:24:54;;;;;;;;;;;3.70;99.90;;;;;;5042959;28;19925;-72
2021/12/05 18:27:20;;;;;;;;;;;3.70;99.90;;;;;;5044001;28;19928;-73
2021/12/05 18:29:47;;;;;;;;;;;3.70;99.90;;;;;;5043510;28;19952;-73
2021/12/05 18:32:14;;;;;;;;;;;3.70;99.90;;;;;;5044629;28;19927;-72
2021/12/05 18:34:41;;;;;;;;;;;3.70;99.90;;;;;;5043944;28;19963;-72
2021/12/05 18:37:10;;;;;;;;;;;3.70;99.90;;;;;;5043640;28;19928;-73
2021/12/05 18:39:38;;;;;;;;;;;3.70;99.90;;;;;;5044130;28;20035;-72
2021/12/05 18:42:07;;;;;;;;;;;3.70;99.90;;;;;;5044203;28;19928;-72
2021/12/05 18:44:38;;;;;;;;;;;3.60;99.90;;;;;;5043605;28;20144;-72
2021/12/05 18:47:05;;;;;;;;;;;3.60;99.90;;;;;;5043571;28;19984;-73
2021/12/05 18:49:33;;;;;;;;;;;3.60;99.90;;;;;;5043384;28;21001;-72
2021/12/05 18:52:00;;;;;;;;;;;3.60;99.90;;;;;;5043948;28;19928;-73
2021/12/05 18:54:28;;;;;;;;;;;3.60;99.90;;;;;;5043811;28;20125;-73
2021/12/05 18:56:55;;;;;;;;;;;3.50;99.90;;;;;;5036898;28;19927;-72
2021/12/05 18:59:24;;;;;;;;;;;3.40;99.90;;;;;;5034619;28;19981;-73
2021/12/05 19:04:40;;;;;;;;;;;3.40;99.90;;;;;;5029897;28;19924;-72